Time;durP1;ratioP1;P1;durP2;ratioP2;P2;SDS_P1;SDS_P2;PMS_P1;PMS_P2;Temp;Humidity;BMP_temperature;BMP_pressure;BME280_temperature;BME280_humidity;BME280_pressure;Samples;Min_cycle;Max_cycle;Signal;HPM_P1;HPM_P2
2022/08/13 00:02:04;;;;;;;4.75;3.40;;;18.40;61.50;;;;;;5019967;28;20061;-87
2022/08/13 00:04:30;;;;;;;5.25;3.50;;;18.30;99.90;;;;;;4994571;28;20205;-87
2022/08/13 00:07:08;;;;;;;6.28;3.58;;;18.30;99.90;;;;;;5034619;28;20224;-87
2022/08/13 00:09:42;;;;;;;4.40;3.10;;;18.20;99.90;;;;;;5011392;28;20560;-87
2022/08/13 00:15:11;;;;;;;7.65;4.00;;;18.10;99.90;;;;;;5026359;28;20318;-87
2022/08/13 00:17:39;;;;;;;5.45;4.00;;;18.00;99.90;;;;;;4998919;28;20139;-87
2022/08/13 00:20:07;;;;;;;6.25;4.05;;;17.90;99.90;;;;;;4987655;28;20121;-87
2022/08/13 00:22:36;;;;;;;6.95;4.03;;;17.90;99.90;;;;;;5014243;28;20065;-87
2022/08/13 00:25:06;;;;;;;5.28;4.43;;;17.80;99.90;;;;;;4986338;28;20147;-87
2022/08/13 00:27:32;;;;;;;5.22;4.53;;;17.90;99.90;;;;;;5033596;28;20041;-88
2022/08/13 00:29:58;;;;;;;5.40;4.03;;;17.80;99.90;;;;;;4998704;28;20041;-86
2022/08/13 00:32:29;;;;;;;5.97;4.05;;;17.80;99.90;;;;;;5035133;28;20041;-86
2022/08/13 00:35:00;;;;;;;6.05;4.43;;;17.70;99.90;;;;;;5009287;28;20038;-87
2022/08/13 00:37:28;;;;;;;7.22;4.07;;;17.70;99.90;;;;;;4992894;28;20120;-87
2022/08/13 00:39:56;;;;;;;5.43;3.90;;;17.70;99.90;;;;;;5015582;28;20181;-86
2022/08/13 00:42:25;;;;;;;7.93;4.07;;;17.60;99.90;;;;;;5018775;28;20304;-86
2022/08/13 00:44:51;;;;;;;5.30;4.13;;;17.60;99.90;;;;;;5034240;28;20603;-88
2022/08/13 00:50:04;;;;;;;9.37;3.97;;;17.60;1.00;;;;;;5040181;28;20122;-86
2022/08/13 00:52:32;;;;;;;6.38;4.20;;;17.60;1.00;;;;;;5000447;28;20145;-87
2022/08/13 00:55:05;;;;;;;7.45;4.35;;;17.50;1.00;;;;;;4995206;28;20461;-84
2022/08/13 00:57:31;;;;;;;6.43;4.68;;;17.50;1.00;;;;;;5021766;28;20065;-85
2022/08/13 00:59:58;;;;;;;9.35;4.25;;;17.50;1.00;;;;;;5030678;28;20532;-85
2022/08/13 01:02:24;;;;;;;8.23;4.97;;;17.50;99.90;;;;;;4992442;28;20482;-85
2022/08/13 01:04:51;;;;;;;9.75;4.97;;;17.40;99.90;;;;;;5029468;28;20595;-84
2022/08/13 01:07:20;;;;;;;7.85;4.88;;;17.30;64.10;;;;;;5015504;28;20041;-85
2022/08/13 01:09:46;;;;;;;9.35;5.38;;;17.20;99.90;;;;;;5032295;28;20030;-85
2022/08/13 01:12:13;;;;;;;5.07;4.18;;;17.20;99.90;;;;;;5018107;28;20038;-84
2022/08/13 01:14:41;;;;;;;7.05;4.88;;;17.10;99.90;;;;;;4990622;28;20046;-85
2022/08/13 01:17:11;;;;;;;8.07;4.55;;;17.10;99.90;;;;;;5032880;28;20038;-85
2022/08/13 01:19:43;;;;;;;7.60;4.72;;;17.10;99.90;;;;;;5030710;28;20046;-86
2022/08/13 01:22:09;;;;;;;6.78;4.63;;;17.10;99.90;;;;;;5020327;28;20683;-85
2022/08/13 01:24:34;;;;;;;9.13;5.60;;;17.00;99.90;;;;;;4994917;28;20264;-85
2022/08/13 01:27:00;;;;;;;8.15;4.90;;;17.00;99.90;;;;;;5016777;28;20173;-86
2022/08/13 01:29:26;;;;;;;5.88;5.00;;;16.90;99.90;;;;;;5013886;28;20037;-86
2022/08/13 01:31:52;;;;;;;8.30;5.18;;;16.90;99.90;;;;;;5022035;28;20051;-85
2022/08/13 01:34:22;;;;;;;6.25;5.40;;;16.80;99.90;;;;;;4986715;28;20037;-85
2022/08/13 01:36:49;;;;;;;8.32;4.78;;;16.80;99.90;;;;;;5001913;28;20489;-86
2022/08/13 01:39:15;;;;;;;7.03;5.00;;;16.70;99.90;;;;;;4992845;28;20033;-86
2022/08/13 01:41:40;;;;;;;8.77;5.30;;;16.80;99.90;;;;;;5019756;28;20595;-85
2022/08/13 01:44:07;;;;;;;8.77;5.28;;;16.70;99.90;;;;;;5004769;28;20517;-85
2022/08/13 01:52:04;;;;;;;9.63;5.25;;;16.70;99.90;;;;;;5008393;28;20153;-86
2022/08/13 01:54:32;;;;;;;6.97;5.97;;;16.60;99.90;;;;;;5027937;28;20042;-85
2022/08/13 01:57:04;;;;;;;9.23;6.20;;;16.60;99.90;;;;;;4991281;28;20025;-86
2022/08/13 01:59:34;;;;;;;11.77;6.00;;;16.60;99.90;;;;;;5005723;28;20543;-86
2022/08/13 02:01:59;;;;;;;7.18;5.72;;;16.50;99.90;;;;;;5033406;28;20351;-85
2022/08/13 02:04:26;;;;;;;7.20;5.63;;;16.50;99.90;;;;;;4989487;28;20127;-85
2022/08/13 02:06:52;;;;;;;7.65;6.35;;;16.50;99.90;;;;;;5010146;28;20827;-85
2022/08/13 02:09:18;;;;;;;8.13;6.00;;;16.60;99.90;;;;;;5013726;28;20206;-85
2022/08/13 02:11:44;;;;;;;7.85;6.57;;;16.60;99.90;;;;;;5019408;28;20113;-85
2022/08/13 02:14:12;;;;;;;7.60;5.57;;;16.50;99.90;;;;;;5024675;28;20124;-85
2022/08/13 02:16:37;;;;;;;8.75;6.05;;;16.50;99.90;;;;;;5009259;28;20525;-85
2022/08/13 02:19:08;;;;;;;7.57;5.70;;;16.50;99.90;;;;;;5021329;28;20316;-85
2022/08/13 02:21:36;;;;;;;7.63;5.82;;;16.50;99.90;;;;;;5002807;28;20521;-86
2022/08/13 02:24:03;;;;;;;8.48;5.85;;;16.50;99.90;;;;;;4998894;28;20117;-86
2022/08/13 02:26:32;;;;;;;7.88;5.70;;;16.40;99.90;;;;;;5005740;28;20189;-85
2022/08/13 02:29:00;;;;;;;6.07;5.47;;;16.40;99.90;;;;;;5013082;28;20039;-86
2022/08/13 02:31:28;;;;;;;10.18;6.20;;;16.40;99.90;;;;;;4993021;28;20384;-85
2022/08/13 02:33:54;;;;;;;7.32;5.82;;;16.40;1.00;;;;;;4991503;28;20033;-85
2022/08/13 02:36:22;;;;;;;7.75;5.63;;;16.40;1.00;;;;;;5011480;28;20033;-84
2022/08/13 02:39:06;;;;;;;11.63;5.90;;;16.30;1.00;;;;;;5008322;28;20121;-85
2022/08/13 02:41:38;;;;;;;7.13;6.10;;;16.30;99.90;;;;;;5012531;28;20045;-86
2022/08/13 02:44:13;;;;;;;7.65;6.28;;;16.30;1.00;;;;;;4990042;28;20041;-84
2022/08/13 02:46:40;;;;;;;8.55;6.03;;;16.30;99.90;;;;;;5012378;28;20042;-85
2022/08/13 02:49:06;;;;;;;7.50;6.65;;;16.20;99.90;;;;;;5020510;28;20053;-85
2022/08/13 02:51:32;;;;;;;7.68;6.18;;;16.20;1.00;;;;;;5033779;28;20040;-84
2022/08/13 02:54:00;;;;;;;6.90;5.53;;;16.20;99.90;;;;;;4994952;28;20088;-85
2022/08/13 02:56:27;;;;;;;7.07;6.32;;;16.20;99.90;;;;;;4994144;28;20083;-85
2022/08/13 02:58:55;;;;;;;9.73;6.10;;;16.10;99.90;;;;;;5009359;28;20046;-84
2022/08/13 03:01:24;;;;;;;8.50;6.13;;;16.20;1.00;;;;;;4984326;28;20078;-85
2022/08/13 03:03:51;;;;;;;9.05;6.53;;;16.10;1.00;;;;;;4994425;28;20042;-84
2022/08/13 03:06:19;;;;;;;8.60;6.43;;;16.10;1.00;;;;;;5017483;28;20613;-84
2022/08/13 03:08:51;;;;;;;7.90;6.20;;;16.10;1.00;;;;;;5013589;28;20044;-85
2022/08/13 03:11:19;;;;;;;10.75;6.80;;;16.00;1.00;;;;;;4998828;28;20049;-85
2022/08/13 03:13:52;;;;;;;8.52;6.47;;;16.00;1.00;;;;;;5008901;28;20128;-86
2022/08/13 03:16:21;;;;;;;8.80;6.30;;;16.00;1.00;;;;;;4988956;28;20219;-85
2022/08/13 03:18:47;;;;;;;8.90;7.10;;;16.00;99.90;;;;;;5024898;28;20512;-86
2022/08/13 03:21:16;;;;;;;9.80;6.55;;;16.00;99.90;;;;;;4999796;28;20025;-85
2022/08/13 03:23:43;;;;;;;7.72;6.60;;;16.00;1.00;;;;;;5006351;28;20541;-85
2022/08/13 03:26:11;;;;;;;11.45;7.10;;;15.90;1.00;;;;;;5021573;28;20124;-85
2022/08/13 03:28:38;;;;;;;7.72;6.93;;;15.90;1.00;;;;;;5006059;28;20056;-86
2022/08/13 03:31:05;;;;;;;8.32;6.90;;;15.90;1.00;;;;;;4993649;28;20045;-86
2022/08/13 03:33:35;;;;;;;7.65;6.88;;;15.90;1.00;;;;;;5022700;28;20428;-85
2022/08/13 03:36:01;;;;;;;9.05;7.55;;;15.90;1.00;;;;;;5038751;28;20053;-86
2022/08/13 03:38:27;;;;;;;8.18;7.03;;;15.90;88.90;;;;;;5018745;28;20452;-85
2022/08/13 03:41:02;;;;;;;7.82;7.03;;;15.80;1.00;;;;;;5010319;28;20125;-85
2022/08/13 03:43:30;;;;;;;8.98;6.85;;;15.80;1.00;;;;;;5003220;28;20408;-85
2022/08/13 03:45:57;;;;;;;10.63;7.38;;;15.80;1.00;;;;;;5037140;28;20489;-85
2022/08/13 03:48:25;;;;;;;10.50;7.35;;;15.80;1.00;;;;;;5008300;28;20093;-85
2022/08/13 03:50:53;;;;;;;8.95;7.45;;;15.70;1.00;;;;;;5013311;28;20046;-85
2022/08/13 03:53:20;;;;;;;8.60;7.38;;;15.70;1.00;;;;;;5034122;28;20045;-85
2022/08/13 03:55:47;;;;;;;9.15;7.53;;;15.70;17.40;;;;;;5031428;28;20064;-83
2022/08/13 03:58:15;;;;;;;9.10;7.32;;;15.60;99.90;;;;;;5032191;28;20142;-85
2022/08/13 04:00:47;;;;;;;8.68;7.72;;;15.60;16.30;;;;;;5011482;28;20157;-85
2022/08/13 04:03:24;;;;;;;10.07;7.53;;;15.60;58.80;;;;;;4989918;28;20408;-86
2022/08/13 04:06:02;;;;;;;10.05;7.45;;;15.60;19.90;;;;;;5003653;28;20351;-85
2022/08/13 04:08:34;;;;;;;14.10;8.43;;;15.60;99.90;;;;;;5006174;28;20788;-85
2022/08/13 04:11:03;;;;;;;8.63;7.07;;;15.60;99.90;;;;;;5030225;28;20100;-85
2022/08/13 04:13:36;;;;;;;8.32;7.50;;;15.50;99.90;;;;;;5032045;28;20655;-86
2022/08/13 04:16:04;;;;;;;9.55;7.55;;;15.50;34.50;;;;;;5006013;28;20377;-86
2022/08/13 04:18:35;;;;;;;8.27;7.47;;;15.50;1.00;;;;;;5032312;28;20045;-86
2022/08/13 04:21:08;;;;;;;9.05;8.15;;;15.50;1.00;;;;;;5020484;28;20037;-85
2022/08/13 04:23:38;;;;;;;10.55;7.88;;;15.50;99.90;;;;;;5018329;28;20076;-85
2022/08/13 04:26:04;;;;;;;8.93;7.35;;;15.50;99.90;;;;;;5024485;28;20045;-85
2022/08/13 04:28:29;;;;;;;9.30;7.63;;;15.50;79.60;;;;;;5009115;28;20041;-85
2022/08/13 04:30:56;;;;;;;8.25;7.40;;;15.60;99.90;;;;;;5010369;28;20053;-85
2022/08/13 04:33:22;;;;;;;8.45;7.55;;;15.50;50.90;;;;;;5024837;28;20037;-85
2022/08/13 04:35:48;;;;;;;11.05;8.90;;;15.60;1.00;;;;;;5007860;28;20394;-85
2022/08/13 04:38:15;;;;;;;9.52;8.23;;;15.60;99.40;;;;;;5022032;28;20038;-84
2022/08/13 04:40:45;;;;;;;9.40;7.70;;;15.60;50.00;;;;;;5030128;28;20205;-84
2022/08/13 04:43:12;;;;;;;9.55;8.10;;;15.70;99.90;;;;;;4992502;28;20037;-85
2022/08/13 04:45:38;;;;;;;9.52;7.10;;;15.70;97.90;;;;;;4989819;28;20505;-85
2022/08/13 04:48:12;;;;;;;13.00;7.90;;;15.70;90.70;;;;;;5036274;28;20511;-86
2022/08/13 04:50:39;;;;;;;9.18;7.32;;;15.70;1.00;;;;;;5018514;28;20324;-86
2022/08/13 04:53:20;;;;;;;8.18;7.30;;;15.70;1.00;;;;;;5029556;28;20136;-85
2022/08/13 04:55:45;;;;;;;10.85;7.57;;;15.80;1.00;;;;;;5015077;28;20045;-86
2022/08/13 04:58:11;;;;;;;8.23;7.43;;;15.90;1.00;;;;;;5003917;28;20029;-85
2022/08/13 05:00:37;;;;;;;9.40;7.57;;;15.90;1.00;;;;;;5016006;28;20041;-85
2022/08/13 05:03:18;;;;;;;8.60;7.45;;;16.00;1.00;;;;;;4987709;28;20058;-85
2022/08/13 05:05:46;;;;;;;9.50;8.00;;;16.10;1.00;;;;;;5005493;28;20045;-85
2022/08/13 05:08:15;;;;;;;11.73;8.75;;;16.10;1.00;;;;;;5002955;28;20049;-86
2022/08/13 05:10:46;;;;;;;8.88;7.97;;;16.20;1.00;;;;;;5038064;28;20042;-85
2022/08/13 05:13:24;;;;;;;9.07;8.13;;;16.30;99.90;;;;;;5019298;28;20041;-84
2022/08/13 05:15:51;;;;;;;10.95;6.80;;;16.40;99.90;;;;;;5010075;28;20292;-86
2022/08/13 05:18:17;;;;;;;10.77;7.43;;;16.40;99.90;;;;;;5018246;28;20401;-85
2022/08/13 05:20:42;;;;;;;8.40;7.28;;;16.50;99.90;;;;;;5002571;28;20116;-85
2022/08/13 05:23:10;;;;;;;7.40;6.70;;;16.60;99.90;;;;;;4999674;28;20038;-85
2022/08/13 05:25:36;;;;;;;8.30;7.32;;;16.70;99.90;;;;;;4996052;28;20136;-85
2022/08/13 05:28:02;;;;;;;9.05;6.88;;;16.80;99.90;;;;;;5027813;28;20042;-86
2022/08/13 05:30:28;;;;;;;8.43;7.63;;;16.80;99.90;;;;;;4989963;28;20078;-86
2022/08/13 05:32:57;;;;;;;8.15;7.35;;;16.90;99.90;;;;;;5020588;28;20048;-85
2022/08/13 05:35:26;;;;;;;7.57;6.88;;;16.90;99.90;;;;;;5029521;28;20046;-86
2022/08/13 05:37:52;;;;;;;9.40;7.25;;;17.00;99.90;;;;;;5016457;28;20045;-85
2022/08/13 05:40:18;;;;;;;9.23;7.15;;;17.10;99.90;;;;;;4995131;28;20473;-85
2022/08/13 05:42:44;;;;;;;7.95;6.80;;;17.30;78.90;;;;;;5008893;28;20041;-85
2022/08/13 05:45:10;;;;;;;9.32;6.97;;;17.30;24.50;;;;;;5011686;28;20061;-85
2022/08/13 05:47:37;;;;;;;7.93;7.13;;;17.50;49.10;;;;;;5018855;28;20057;-84
2022/08/13 05:50:13;;;;;;;8.32;7.25;;;17.60;43.10;;;;;;5040262;28;20186;-86
2022/08/13 05:52:40;;;;;;;7.97;6.35;;;17.70;60.00;;;;;;5026777;28;21866;-85
2022/08/13 05:55:11;;;;;;;6.90;6.22;;;17.80;1.00;;;;;;4993509;28;20076;-86
2022/08/13 05:57:38;;;;;;;10.13;6.32;;;17.90;1.00;;;;;;5018512;28;20041;-85
2022/08/13 06:05:38;;;;;;;5.90;5.40;;;18.40;99.90;;;;;;5007963;28;20056;-85
2022/08/13 06:08:05;;;;;;;7.15;5.88;;;18.50;99.90;;;;;;5031028;28;20037;-85
2022/08/13 06:10:32;;;;;;;8.68;5.93;;;18.70;99.90;;;;;;5032705;28;20056;-85
2022/08/13 06:13:01;;;;;;;10.30;6.25;;;18.80;99.90;;;;;;5018905;28;20037;-85
2022/08/13 06:15:27;;;;;;;7.07;5.93;;;18.90;99.90;;;;;;5010782;28;20046;-85
2022/08/13 06:17:53;;;;;;;8.93;5.78;;;19.00;79.70;;;;;;5043823;28;20041;-85
2022/08/13 06:20:22;;;;;;;7.72;5.75;;;19.20;27.20;;;;;;5011381;28;20052;-86
2022/08/13 06:22:50;;;;;;;11.13;6.93;;;19.30;1.00;;;;;;5029583;28;20033;-85
2022/08/13 06:25:16;;;;;;;6.47;5.50;;;19.40;1.00;;;;;;4994367;28;20037;-86
2022/08/13 06:27:43;;;;;;;6.50;5.57;;;19.60;1.00;;;;;;4990685;28;20208;-85
2022/08/13 06:30:10;;;;;;;8.27;5.43;;;19.70;1.00;;;;;;5027388;28;20091;-84
2022/08/13 06:32:37;;;;;;;9.13;5.03;;;19.80;99.90;;;;;;5010918;28;20077;-85
2022/08/13 06:35:08;;;;;;;6.25;4.65;;;19.90;99.90;;;;;;5013838;28;20042;-85
2022/08/13 06:37:34;;;;;;;7.75;4.60;;;20.00;99.90;;;;;;5002222;28;20116;-85
2022/08/13 06:40:01;;;;;;;7.07;5.22;;;20.10;99.90;;;;;;5015878;28;20485;-85
2022/08/13 06:42:30;;;;;;;5.35;4.63;;;20.20;99.90;;;;;;4988118;28;20034;-85
2022/08/13 06:44:58;;;;;;;5.30;4.22;;;20.40;99.90;;;;;;5014854;28;20106;-84
2022/08/13 06:47:27;;;;;;;4.43;4.03;;;20.50;99.90;;;;;;5017067;28;20291;-85
2022/08/13 06:49:53;;;;;;;8.73;4.30;;;20.60;99.90;;;;;;5036321;28;20176;-85
2022/08/13 06:52:22;;;;;;;6.63;3.83;;;20.70;99.90;;;;;;4981456;28;20955;-84
2022/08/13 06:54:48;;;;;;;5.53;4.00;;;20.80;99.90;;;;;;5029909;28;20046;-85
2022/08/13 06:57:14;;;;;;;6.75;3.75;;;20.90;99.90;;;;;;5006314;28;20030;-85
2022/08/13 06:59:41;;;;;;;5.10;3.63;;;21.00;99.90;;;;;;5008164;28;20042;-86
2022/08/13 07:02:16;;;;;;;6.00;3.90;;;21.10;99.90;;;;;;4987101;28;20061;-86
2022/08/13 07:04:46;;;;;;;;;;;21.30;99.90;;;;;;4995373;28;20377;-87
2022/08/13 07:07:17;;;;;;;5.68;3.40;;;21.30;99.90;;;;;;5001231;28;20000;-87
2022/08/13 07:09:49;;;;;;;5.47;3.65;;;21.40;99.90;;;;;;5023031;28;20107;-86
2022/08/13 07:12:16;;;;;;;5.65;3.40;;;21.50;95.50;;;;;;5037523;28;20049;-87
2022/08/13 07:14:43;;;;;;;7.05;3.38;;;21.60;48.90;;;;;;5036019;28;20129;-87
2022/08/13 07:17:10;;;;;;;5.43;3.42;;;21.70;43.00;;;;;;5033493;28;20041;-86
2022/08/13 07:19:37;;;;;;;5.07;3.53;;;21.80;16.80;;;;;;4991796;28;20161;-86
2022/08/13 07:22:04;;;;;;;6.22;3.10;;;21.80;2.60;;;;;;5015823;28;20707;-86
2022/08/13 07:24:30;;;;;;;6.28;3.30;;;22.00;1.00;;;;;;5024276;28;20073;-87
2022/08/13 07:27:02;;;;;;;3.50;2.90;;;22.10;1.00;;;;;;4988103;28;20109;-87
2022/08/13 07:29:27;;;;;;;4.72;2.90;;;22.20;1.00;;;;;;4998138;28;20092;-88
2022/08/13 07:31:54;;;;;;;4.93;2.80;;;22.30;1.00;;;;;;5018549;28;20374;-87
2022/08/13 07:34:21;;;;;;;5.28;2.78;;;22.40;1.00;;;;;;5033254;28;20457;-86
2022/08/13 07:36:49;;;;;;;3.10;2.60;;;22.60;1.00;;;;;;5034651;28;20037;-86
2022/08/13 07:39:16;;;;;;;3.97;2.58;;;22.70;1.00;;;;;;5007855;28;20089;-87
2022/08/13 07:41:49;;;;;;;3.33;2.80;;;22.90;1.00;;;;;;5008641;28;20057;-87
2022/08/13 07:44:22;;;;;;;6.45;2.90;;;23.00;99.90;;;;;;4981615;28;20441;-86
2022/08/13 07:46:50;;;;;;;7.15;2.80;;;23.10;99.90;;;;;;4994906;28;20116;-87
2022/08/13 07:49:20;;;;;;;6.07;2.70;;;23.20;99.90;;;;;;5016583;28;20030;-87
2022/08/13 07:51:47;;;;;;;5.07;2.65;;;23.20;99.90;;;;;;5015621;28;20082;-88
2022/08/13 07:54:13;;;;;;;3.63;2.50;;;23.30;99.90;;;;;;5015042;28;20478;-88
2022/08/13 07:56:40;;;;;;;3.17;2.40;;;23.50;99.90;;;;;;5023379;28;20037;-87
2022/08/13 07:59:19;;;;;;;6.80;2.90;;;23.50;99.90;;;;;;5029635;28;20335;-86
2022/08/13 08:01:46;;;;;;;2.58;2.33;;;23.70;99.90;;;;;;5023355;28;20038;-87
2022/08/13 08:04:16;;;;;;;3.78;2.40;;;23.80;99.90;;;;;;4998139;28;20045;-88
2022/08/13 08:06:47;;;;;;;4.85;2.35;;;24.00;99.90;;;;;;5008024;28;20042;-87
2022/08/13 08:09:21;;;;;;;4.82;2.58;;;24.10;99.90;;;;;;5009321;28;20153;-86
2022/08/13 08:14:32;;;;;;;4.80;2.13;;;24.30;99.90;;;;;;5014153;28;20070;-86
2022/08/13 08:16:59;;;;;;;5.00;2.20;;;24.40;99.90;;;;;;4996620;28;20061;-87
2022/08/13 08:19:27;;;;;;;6.78;2.03;;;24.50;99.90;;;;;;5024891;28;20382;-87
2022/08/13 08:21:57;;;;;;;3.55;2.05;;;24.70;99.90;;;;;;5029770;28;20054;-86
2022/08/13 08:24:23;;;;;;;7.43;2.20;;;24.80;99.90;;;;;;5013332;28;20034;-87
2022/08/13 08:26:49;;;;;;;4.35;2.35;;;25.00;99.90;;;;;;5009374;28;20040;-88
2022/08/13 08:29:16;;;;;;;3.13;2.17;;;25.20;99.90;;;;;;4989509;28;20056;-87
2022/08/13 08:31:43;;;;;;;3.22;2.00;;;25.30;99.90;;;;;;5032976;28;20052;-87
2022/08/13 08:34:09;;;;;;;4.45;1.92;;;25.40;99.90;;;;;;5043763;28;20284;-87
2022/08/13 08:36:45;;;;;;;3.70;1.95;;;25.50;99.90;;;;;;5038410;28;20113;-86
2022/08/13 08:44:48;;;;;;;2.97;2.00;;;25.90;99.90;;;;;;5029989;28;20592;-88
2022/08/13 08:47:14;;;;;;;3.38;1.92;;;25.90;99.90;;;;;;5014249;28;20084;-87
2022/08/13 08:49:40;;;;;;;3.80;1.70;;;26.30;99.90;;;;;;4993318;28;20038;-87
2022/08/13 08:52:08;;;;;;;3.28;2.00;;;26.40;99.90;;;;;;4998094;28;20115;-87
2022/08/13 08:54:34;;;;;;;3.20;2.00;;;26.50;99.90;;;;;;4996416;28;20503;-88
2022/08/13 08:57:01;;;;;;;3.35;1.77;;;26.60;82.90;;;;;;5006540;28;20489;-87
2022/08/13 08:59:32;;;;;;;3.80;2.10;;;26.70;93.00;;;;;;5026306;28;20037;-87
2022/08/13 09:01:59;;;;;;;2.72;1.80;;;26.80;74.50;;;;;;4990591;28;20046;-88
2022/08/13 09:04:25;;;;;;;3.92;2.17;;;26.90;73.70;;;;;;4984670;28;20585;-86
2022/08/13 09:06:57;;;;;;;3.63;1.73;;;27.00;66.90;;;;;;5007453;28;20029;-87
2022/08/13 09:09:24;;;;;;;2.42;1.60;;;27.10;38.80;;;;;;5006904;28;20389;-87
2022/08/13 09:11:55;;;;;;;3.63;1.50;;;27.20;46.20;;;;;;5026843;28;20126;-88
2022/08/13 09:14:30;;;;;;;3.80;1.83;;;27.30;41.40;;;;;;5010322;28;20034;-88
2022/08/13 09:17:02;;;;;;;4.22;1.70;;;27.50;22.20;;;;;;5002365;28;20143;-87
2022/08/13 09:19:28;;;;;;;2.03;1.70;;;27.60;18.40;;;;;;5009931;28;20127;-87
2022/08/13 09:21:57;;;;;;;3.35;1.80;;;27.70;1.00;;;;;;4986113;28;20461;-88
2022/08/13 09:24:24;;;;;;;2.33;1.73;;;27.70;1.00;;;;;;5010515;28;20045;-88
2022/08/13 09:26:55;;;;;;;2.60;1.88;;;27.90;1.00;;;;;;5013809;28;21325;-88
2022/08/13 09:29:23;;;;;;;2.38;1.58;;;28.00;1.00;;;;;;5004378;28;20044;-88
2022/08/13 09:31:50;;;;;;;2.45;1.60;;;28.10;1.00;;;;;;5036021;28;20076;-88
2022/08/13 09:34:22;;;;;;;4.20;1.77;;;28.10;1.00;;;;;;4990402;28;20183;-88
2022/08/13 09:36:53;;;;;;;6.05;1.77;;;28.30;1.00;;;;;;5014919;28;20049;-88
2022/08/13 09:39:54;;;;;;;3.45;1.70;;;28.50;1.00;;;;;;5008754;28;20125;-87
2022/08/13 09:42:27;;;;;;;3.30;1.70;;;28.70;1.00;;;;;;5010707;28;20065;-87
2022/08/13 09:45:00;;;;;;;2.40;1.80;;;28.60;1.00;;;;;;5004657;28;20063;-88
2022/08/13 09:47:26;;;;;;;2.83;1.77;;;28.70;1.00;;;;;;4992802;28;20124;-88
2022/08/13 09:49:53;;;;;;;4.82;1.63;;;28.90;1.00;;;;;;5007864;28;20104;-86
2022/08/13 09:52:22;;;;;;;1.60;1.50;;;29.00;1.00;;;;;;5031068;28;20060;-88
2022/08/13 09:54:49;;;;;;;2.45;1.60;;;29.10;1.00;;;;;;5023748;28;20046;-88
2022/08/13 09:57:20;;;;;;;4.57;1.70;;;29.20;1.00;;;;;;5033082;28;20041;-87
2022/08/13 09:59:47;;;;;;;3.40;1.33;;;29.30;1.00;;;;;;5034178;28;20386;-89
2022/08/13 10:02:13;;;;;;;4.15;1.55;;;29.50;1.00;;;;;;5029147;28;20240;-87
2022/08/13 10:04:41;;;;;;;2.35;1.77;;;29.30;1.00;;;;;;5023320;28;20184;-87
2022/08/13 10:07:08;;;;;;;4.30;1.55;;;29.50;1.00;;;;;;5011558;28;20033;-87
2022/08/13 10:09:36;;;;;;;5.28;1.48;;;29.50;1.00;;;;;;5011613;28;20467;-88
2022/08/13 10:12:07;;;;;;;3.35;1.35;;;29.60;1.00;;;;;;4991773;28;20037;-87
2022/08/13 10:14:36;;;;;;;2.33;1.50;;;29.60;1.00;;;;;;4987240;28;20417;-88
2022/08/13 10:17:04;;;;;;;4.40;1.60;;;29.70;1.00;;;;;;5009857;28;20384;-88
2022/08/13 10:19:30;;;;;;;4.65;1.60;;;29.70;1.00;;;;;;5005476;28;20152;-88
2022/08/13 10:21:55;;;;;;;5.07;1.60;;;29.90;1.00;;;;;;5004905;28;20084;-88
2022/08/13 10:24:21;;;;;;;1.92;1.55;;;29.80;1.00;;;;;;4985951;28;20030;-89
2022/08/13 10:26:47;;;;;;;3.47;1.50;;;30.00;1.00;;;;;;5031248;28;20387;-88
2022/08/13 10:29:13;;;;;;;3.90;1.50;;;30.00;1.00;;;;;;5029041;28;20026;-88
2022/08/13 10:31:39;;;;;;;2.00;1.70;;;30.20;1.00;;;;;;5011392;28;20041;-88
2022/08/13 10:34:05;;;;;;;4.20;1.40;;;30.10;1.00;;;;;;5014330;28;20560;-87
2022/08/13 10:36:33;;;;;;;1.60;1.50;;;30.10;1.00;;;;;;4992430;28;20037;-89
2022/08/13 10:39:08;;;;;;;2.70;1.40;;;30.40;1.00;;;;;;4983877;28;20116;-88
2022/08/13 10:41:34;;;;;;;3.03;1.42;;;30.50;1.00;;;;;;5005496;28;20864;-87
2022/08/13 10:44:00;;;;;;;3.05;1.50;;;30.40;1.00;;;;;;5014739;28;20095;-88
2022/08/13 10:46:31;;;;;;;2.33;1.60;;;30.60;1.00;;;;;;5007632;28;20354;-88
2022/08/13 10:48:58;;;;;;;3.08;1.67;;;30.40;1.00;;;;;;4988360;28;20445;-88
2022/08/13 10:51:28;;;;;;;1.83;1.58;;;30.30;1.00;;;;;;5003083;28;20406;-87
2022/08/13 10:53:59;;;;;;;1.92;1.50;;;30.80;1.00;;;;;;5002619;28;20620;-87
2022/08/13 10:56:30;;;;;;;3.20;1.33;;;30.70;1.00;;;;;;4987959;28;20101;-87
2022/08/13 10:58:59;;;;;;;1.38;1.27;;;30.60;1.00;;;;;;4990264;28;20061;-89
2022/08/13 11:01:26;;;;;;;2.50;1.50;;;30.70;1.00;;;;;;4987636;28;20633;-88
2022/08/13 11:03:58;;;;;;;1.80;1.35;;;31.00;1.00;;;;;;5017384;28;20045;-89
2022/08/13 11:06:27;;;;;;;2.65;1.50;;;31.10;1.00;;;;;;4985902;28;20424;-88
2022/08/13 11:08:54;;;;;;;2.70;1.50;;;31.10;1.00;;;;;;4989110;28;20156;-87
2022/08/13 11:11:21;;;;;;;3.58;1.63;;;31.40;1.00;;;;;;5004478;28;20053;-89
2022/08/13 11:13:47;;;;;;;2.67;1.52;;;31.40;1.00;;;;;;4984561;28;20456;-87
2022/08/13 11:18:59;;;;;;;4.75;1.70;;;31.60;99.90;;;;;;5021265;28;20187;-88
2022/08/13 11:21:26;;;;;;;3.00;1.48;;;31.80;99.90;;;;;;5005474;28;20034;-87
2022/08/13 11:23:52;;;;;;;2.00;1.42;;;31.60;99.90;;;;;;4995001;28;20381;-88
2022/08/13 11:26:19;;;;;;;2.75;1.70;;;31.60;99.90;;;;;;5008897;28;20101;-87
2022/08/13 11:28:45;;;;;;;1.52;1.30;;;31.20;99.90;;;;;;5016631;28;20327;-88
2022/08/13 11:31:13;;;;;;;1.60;1.33;;;31.80;99.90;;;;;;5031233;28;20047;-88
2022/08/13 11:33:39;;;;;;;4.22;1.45;;;32.00;99.90;;;;;;5039662;28;20046;-88
2022/08/13 11:36:05;;;;;;;2.08;1.40;;;31.80;99.90;;;;;;5031586;28;20035;-88
2022/08/13 11:38:31;;;;;;;2.78;1.45;;;32.10;99.90;;;;;;5007364;28;20030;-88
2022/08/13 11:40:58;;;;;;;2.25;1.40;;;32.10;99.90;;;;;;4994564;28;20030;-87
2022/08/13 11:43:29;;;;;;;1.98;1.40;;;32.20;99.90;;;;;;5016759;28;20067;-88
2022/08/13 11:45:56;;;;;;;3.20;1.42;;;32.20;99.90;;;;;;5034201;28;20072;-88
2022/08/13 11:48:23;;;;;;;5.03;1.60;;;32.40;99.90;;;;;;5017625;28;20128;-87
2022/08/13 11:50:50;;;;;;;4.40;1.50;;;32.20;99.90;;;;;;5019680;28;20073;-87
2022/08/13 11:53:17;;;;;;;2.33;1.50;;;32.20;99.90;;;;;;5023151;28;20048;-89
2022/08/13 11:55:42;;;;;;;2.25;1.33;;;32.40;99.90;;;;;;5016254;28;20720;-87
2022/08/13 11:58:09;;;;;;;1.70;1.50;;;32.60;99.90;;;;;;5019989;28;20038;-88
2022/08/13 12:00:39;;;;;;;1.88;1.65;;;32.50;99.90;;;;;;4996352;28;20493;-87
2022/08/13 12:03:09;;;;;;;2.17;1.52;;;32.40;99.90;;;;;;5011313;28;20107;-87
2022/08/13 12:05:35;;;;;;;1.73;1.23;;;32.60;99.90;;;;;;5029059;28;20056;-88
2022/08/13 12:08:02;;;;;;;2.90;1.45;;;32.70;99.90;;;;;;5036675;28;20507;-87
2022/08/13 12:10:29;;;;;;;1.75;1.20;;;32.90;99.90;;;;;;4993263;28;20339;-88
2022/08/13 12:12:55;;;;;;;1.85;1.42;;;33.10;99.90;;;;;;5011308;28;20034;-87
2022/08/13 12:15:20;;;;;;;5.07;1.45;;;32.90;99.90;;;;;;4999818;28;20307;-88
2022/08/13 12:17:49;;;;;;;2.10;1.40;;;33.10;99.90;;;;;;5030333;28;20152;-87
2022/08/13 12:20:21;;;;;;;2.13;1.30;;;33.00;99.90;;;;;;5010142;28;20053;-87
2022/08/13 12:22:49;;;;;;;2.60;1.33;;;33.10;99.90;;;;;;5033968;28;20056;-88
2022/08/13 12:25:15;;;;;;;3.72;1.40;;;33.20;99.90;;;;;;5031309;28;20352;-88
2022/08/13 12:27:40;;;;;;;1.52;1.40;;;32.60;99.90;;;;;;5029701;28;20432;-87
2022/08/13 12:30:07;;;;;;;5.05;1.70;;;32.90;99.90;;;;;;4998946;28;20049;-87
2022/08/13 12:32:33;;;;;;;1.80;1.40;;;33.30;99.90;;;;;;4989406;28;20575;-88
2022/08/13 12:34:59;;;;;;;1.77;1.40;;;33.40;99.90;;;;;;5029829;28;20045;-87
2022/08/13 12:37:25;;;;;;;2.25;1.73;;;33.30;99.90;;;;;;5006714;28;20113;-86
2022/08/13 12:39:52;;;;;;;3.30;1.38;;;33.10;99.90;;;;;;5001950;28;20188;-87
2022/08/13 12:42:18;;;;;;;3.45;1.60;;;33.50;99.90;;;;;;5010790;28;20151;-87
2022/08/13 12:44:44;;;;;;;1.92;1.58;;;33.30;99.90;;;;;;5002578;28;20046;-86
2022/08/13 12:47:09;;;;;;;1.95;1.40;;;33.50;99.90;;;;;;5004913;28;20091;-88
2022/08/13 12:49:35;;;;;;;2.42;1.40;;;33.60;99.90;;;;;;5006798;28;20049;-88
2022/08/13 12:52:01;;;;;;;2.38;1.70;;;33.80;99.90;;;;;;4994125;28;20045;-86
2022/08/13 12:54:27;;;;;;;2.53;1.50;;;33.90;99.90;;;;;;5003705;28;20393;-87
2022/08/13 12:56:53;;;;;;;10.90;1.77;;;33.00;99.90;;;;;;5018509;28;20498;-88
2022/08/13 12:59:19;;;;;;;3.65;1.60;;;32.20;99.90;;;;;;5019705;28;20026;-88
2022/08/13 13:01:52;;;;;;;1.63;1.45;;;32.80;99.90;;;;;;5025124;28;20084;-87
2022/08/13 13:04:20;;;;;;;3.10;1.60;;;33.40;99.90;;;;;;5018412;28;20669;-89
2022/08/13 13:06:46;;;;;;;2.92;1.50;;;33.60;99.90;;;;;;5016396;28;20120;-89
2022/08/13 13:09:12;;;;;;;4.68;1.73;;;34.00;99.90;;;;;;5008942;28;20117;-87
2022/08/13 13:11:39;;;;;;;1.80;1.50;;;33.80;99.90;;;;;;5003408;28;20118;-87
2022/08/13 13:14:08;;;;;;;3.65;1.45;;;34.10;99.90;;;;;;5026433;28;20104;-89
2022/08/13 13:16:35;;;;;;;2.75;1.73;;;34.00;99.90;;;;;;5009420;28;20109;-87
2022/08/13 13:19:05;;;;;;;3.15;1.80;;;34.30;99.90;;;;;;5003652;28;20360;-87
2022/08/13 13:21:35;;;;;;;2.50;1.48;;;34.50;99.90;;;;;;5003419;28;20041;-88
2022/08/13 13:24:03;;;;;;;2.47;1.60;;;34.50;99.90;;;;;;5003876;28;20037;-89